| time (UTC) | temp C | wind direction | speed KPH | gust KPH | rain 1hr cm | rain 24hr cm | rain mn cm | humidity % | barometer mb |
| 20260504190054 | 17 | 252 | 0.0 | 17.7 | 0.00 | 0.05 | 0.05 | 71 | 1011.2 |
| 20260504185542 | 17 | 215 | 0.0 | 17.7 | 0.00 | 0.05 | 0.05 | 68 | 1011.0 |
| 20260504185042 | 18 | 236 | 1.6 | 24.1 | 0.00 | 0.05 | 0.05 | 66 | 1011.4 |
| 20260504184557 | 20 | 217 | 0.0 | 24.1 | 0.00 | 0.05 | 0.05 | 64 | 1011.7 |
| 20260504184044 | 20 | 189 | 1.6 | 22.5 | 0.00 | 0.05 | 0.05 | 61 | 1012.6 |
| 20260504183543 | 21 | 0 | 1.6 | 16.1 | 0.00 | 0.05 | 0.05 | 56 | 1012.3 |
| 20260504183050 | 22 | 322 | 0.0 | 14.5 | 0.00 | 0.05 | 0.05 | 54 | 1011.8 |
| 20260504182542 | 22 | 0 | 0.0 | 11.3 | 0.00 | 0.05 | 0.05 | 54 | 1011.7 |
| 20260504182043 | 22 | 0 | 0.0 | 20.9 | 0.00 | 0.05 | 0.05 | 52 | 1011.6 |
| 20260504181554 | 22 | 0 | 1.6 | 20.9 | 0.00 | 0.05 | 0.05 | 50 | 1011.6 |
| 20260504181042 | 22 | 0 | 0.0 | 14.5 | 0.00 | 0.05 | 0.05 | 53 | 1011.5 |
| 20260504180547 | 22 | 0 | 1.6 | 24.1 | 0.00 | 0.05 | 0.05 | 52 | 1011.5 |
| 20260504180059 | 22 | 0 | 0.0 | 24.1 | 0.00 | 0.05 | 0.05 | 50 | 1011.3 |
| 20260504175543 | 22 | 0 | 0.0 | 24.1 | 0.00 | 0.05 | 0.05 | 54 | 1011.3 |
| 20260504175043 | 22 | 252 | 1.6 | 24.1 | 0.00 | 0.05 | 0.05 | 50 | 1011.3 |
| 20260504174550 | 22 | 227 | 0.0 | 16.1 | 0.00 | 0.05 | 0.05 | 54 | 1011.2 |
| 20260504174044 | 21 | 0 | 1.6 | 16.1 | 0.00 | 0.05 | 0.05 | 52 | 1011.2 |
| 20260504173542 | 21 | 0 | 0.0 | 9.7 | 0.00 | 0.05 | 0.05 | 57 | 1011.4 |
| 20260504173053 | 21 | 0 | 0.0 | 12.9 | 0.00 | 0.05 | 0.05 | 55 | 1011.4 |
| 20260504172543 | 21 | 0 | 0.0 | 16.1 | 0.00 | 0.05 | 0.05 | 56 | 1011.6 |
| 20260504172042 | 21 | 0 | 1.6 | 22.5 | 0.00 | 0.05 | 0.05 | 55 | 1011.3 |
| 20260504171551 | 21 | 215 | 1.6 | 24.1 | 0.00 | 0.05 | 0.05 | 54 | 1011.9 |
| 20260504171042 | 20 | 288 | 3.2 | 24.1 | 0.00 | 0.05 | 0.05 | 56 | 1011.9 |
| 20260504170545 | 20 | 0 | 4.8 | 19.3 | 0.00 | 0.05 | 0.05 | 56 | 1011.9 |
| 20260504151042 | 16 | 0 | 1.6 | 12.9 | 0.00 | 0.05 | 0.05 | 75 | 1013.8 |
| 20260504150543 | 15 | 0 | 0.0 | 12.9 | 0.03 | 0.05 | 0.05 | 74 | 1013.8 |
| 20260504141042 | 12 | 0 | 0.0 | 11.3 | 0.05 | 0.05 | 0.05 | 79 | 1014.4 |
| 20260504140543 | 13 | 0 | 0.0 | 8.0 | 0.03 | 0.03 | 0.03 | 77 | 1014.5 |
| 20260504130542 | 13 | 0 | 0.0 | 12.9 | 0.00 | 0.00 | 0.00 | 66 | 1013.8 |
| 20260504110544 | 10 | 0 | 0.0 | 1.6 | 0.00 | 0.00 | 0.00 | 70 | 1013.5 |
| 20260504100542 | 8 | 0 | 0.0 | 0.0 | 0.00 | 0.00 | 0.00 | 71 | 1013.5 |
| 20260504081551 | 8 | 0 | 0.0 | 0.0 | 0.00 | 0.00 | 0.00 | 74 | 1014.2 |
| 20260504081045 | 8 | 0 | 0.0 | 0.0 | 0.00 | 0.00 | 0.00 | 74 | 1014.3 |
| 20260504080543 | 8 | 0 | 0.0 | 0.0 | 0.00 | 0.00 | 0.00 | 75 | 1014.2 |
| 20260504050542 | 10 | 0 | 0.0 | 0.0 | 0.00 | 0.00 | 0.00 | 77 | 1015.7 |
| 20260504045541 | 10 | 0 | 0.0 | 0.0 | 0.00 | 0.00 | 0.00 | 76 | 1015.8 |
| 20260504045042 | 10 | 0 | 0.0 | 0.0 | 0.00 | 0.00 | 0.00 | 72 | 1015.9 |
| 20260504044551 | 10 | 0 | 0.0 | 0.0 | 0.00 | 0.00 | 0.00 | 71 | 1015.9 |
| 20260504044041 | 10 | 0 | 0.0 | 0.0 | 0.00 | 0.00 | 0.00 | 71 | 1016.0 |
| 20260504043545 | 10 | 0 | 0.0 | 0.0 | 0.00 | 0.00 | 0.00 | 71 | 1016.0 |
| 20260504043057 | 10 | 0 | 0.0 | 0.0 | 0.00 | 0.00 | 0.00 | 72 | 1016.0 |
| 20260504042543 | 10 | 0 | 0.0 | 0.0 | 0.00 | 0.00 | 0.00 | 71 | 1015.9 |
| 20260504042042 | 10 | 0 | 0.0 | 0.0 | 0.00 | 0.00 | 0.00 | 73 | 1015.8 |
| 20260504041553 | 10 | 0 | 0.0 | 0.0 | 0.00 | 0.00 | 0.00 | 75 | 1016.0 |
| 20260504041042 | 10 | 0 | 0.0 | 0.0 | 0.00 | 0.00 | 0.00 | 75 | 1016.0 |
| 20260504040542 | 10 | 0 | 0.0 | 0.0 | 0.00 | 0.00 | 0.00 | 74 | 1016.2 |
| 20260504040051 | 10 | 0 | 0.0 | 0.0 | 0.00 | 0.00 | 0.00 | 74 | 1016.2 |
| 20260504035542 | 10 | 0 | 0.0 | 0.0 | 0.00 | 0.00 | 0.00 | 73 | 1016.0 |
| 20260504035042 | 10 | 0 | 0.0 | 0.0 | 0.00 | 0.00 | 0.00 | 74 | 1016.1 |
| 20260504034552 | 10 | 0 | 0.0 | 0.0 | 0.00 | 0.00 | 0.00 | 72 | 1016.0 |
| 20260504034045 | 10 | 0 | 0.0 | 0.0 | 0.00 | 0.00 | 0.00 | 72 | 1015.9 |
| 20260504033548 | 10 | 0 | 0.0 | 0.0 | 0.00 | 0.00 | 0.00 | 72 | 1015.9 |
| 20260504033054 | 10 | 0 | 0.0 | 0.0 | 0.00 | 0.00 | 0.00 | 70 | 1015.9 |
| 20260504032545 | 10 | 0 | 0.0 | 0.0 | 0.00 | 0.00 | 0.00 | 69 | 1016.0 |
| 20260504032050 | 10 | 0 | 0.0 | 0.0 | 0.00 | 0.00 | 0.00 | 65 | 1016.0 |
| 20260504031557 | 10 | 0 | 0.0 | 0.0 | 0.00 | 0.00 | 0.00 | 68 | 1016.0 |
| 20260504031044 | 10 | 0 | 0.0 | 0.0 | 0.00 | 0.00 | 0.00 | 68 | 1015.9 |
| 20260504030542 | 10 | 0 | 0.0 | 0.0 | 0.00 | 0.00 | 0.00 | 69 | 1016.0 |
| 20260504030053 | 10 | 0 | 0.0 | 0.0 | 0.00 | 0.00 | 0.00 | 64 | 1015.9 |
| 20260504025544 | 10 | 0 | 0.0 | 3.2 | 0.00 | 0.00 | 0.00 | 64 | 1015.9 |
| 20260504025044 | 10 | 0 | 0.0 | 3.2 | 0.00 | 0.00 | 0.00 | 65 | 1015.9 |
| 20260504024555 | 10 | 0 | 0.0 | 1.6 | 0.00 | 0.00 | 0.00 | 67 | 1016.0 |
| 20260504024044 | 10 | 0 | 0.0 | 0.0 | 0.00 | 0.00 | 0.00 | 65 | 1015.9 |
| 20260504023545 | 10 | 0 | 0.0 | 0.0 | 0.00 | 0.00 | 0.00 | 66 | 1015.9 |
| 20260504023050 | 11 | 0 | 0.0 | 0.0 | 0.00 | 0.00 | 0.00 | 67 | 1016.0 |
| 20260504022545 | 11 | 0 | 0.0 | 0.0 | 0.00 | 0.00 | 0.00 | 66 | 1015.8 |
| 20260504022046 | 11 | 0 | 0.0 | 0.0 | 0.00 | 0.00 | 0.00 | 65 | 1015.7 |
| 20260504021557 | 11 | 0 | 0.0 | 0.0 | 0.00 | 0.00 | 0.00 | 63 | 1015.5 |
| 20260504021044 | 11 | 0 | 0.0 | 0.0 | 0.00 | 0.00 | 0.00 | 62 | 1015.5 |
| 20260504020548 | 11 | 0 | 0.0 | 0.0 | 0.00 | 0.00 | 0.00 | 61 | 1015.4 |
| 20260504020127 | 11 | 0 | 0.0 | 0.0 | 0.00 | 0.00 | 0.00 | 60 | 1015.2 |
| 20260504015546 | 11 | 0 | 0.0 | 0.0 | 0.00 | 0.00 | 0.00 | 60 | 1015.2 |
| 20260504015044 | 11 | 0 | 0.0 | 0.0 | 0.00 | 0.00 | 0.00 | 59 | 1015.2 |
| 20260504014604 | 11 | 0 | 0.0 | 0.0 | 0.00 | 0.00 | 0.00 | 58 | 1015.2 |
| 20260504014045 | 11 | 0 | 0.0 | 0.0 | 0.00 | 0.00 | 0.00 | 57 | 1015.2 |
| 20260504013544 | 11 | 0 | 0.0 | 0.0 | 0.00 | 0.00 | 0.00 | 55 | 1015.2 |
| 20260504013115 | 12 | 0 | 0.0 | 0.0 | 0.00 | 0.00 | 0.00 | 56 | 1015.3 |
| 20260504012542 | 12 | 0 | 0.0 | 0.0 | 0.00 | 0.00 | 0.00 | 54 | 1015.3 |
| 20260504012047 | 12 | 0 | 0.0 | 0.0 | 0.00 | 0.00 | 0.00 | 53 | 1015.2 |
| 20260504011553 | 12 | 0 | 0.0 | 0.0 | 0.00 | 0.00 | 0.00 | 51 | 1015.2 |
| 20260504011044 | 12 | 0 | 0.0 | 0.0 | 0.00 | 0.00 | 0.00 | 50 | 1015.2 |
| 20260504010541 | 12 | 0 | 0.0 | 0.0 | 0.00 | 0.00 | 0.00 | 49 | 1015.3 |
| 20260504010054 | 12 | 0 | 0.0 | 0.0 | 0.00 | 0.00 | 0.00 | 49 | 1015.3 |
| 20260504005545 | 12 | 0 | 0.0 | 0.0 | 0.00 | 0.00 | 0.00 | 47 | 1015.4 |
| 20260504005042 | 13 | 0 | 0.0 | 0.0 | 0.00 | 0.00 | 0.00 | 47 | 1015.4 |
| 20260504004638 | 13 | 0 | 0.0 | 0.0 | 0.00 | 0.00 | 0.00 | 46 | 1015.3 |
| 20260504004045 | 13 | 0 | 0.0 | 0.0 | 0.00 | 0.00 | 0.00 | 48 | 1015.3 |
| 20260504003545 | 13 | 0 | 0.0 | 1.6 | 0.00 | 0.00 | 0.00 | 46 | 1015.2 |
| 20260504003102 | 13 | 0 | 0.0 | 1.6 | 0.00 | 0.00 | 0.00 | 46 | 1015.2 |
| 20260504002544 | 13 | 0 | 0.0 | 0.0 | 0.00 | 0.00 | 0.00 | 46 | 1015.2 |
| 20260504002042 | 13 | 0 | 0.0 | 0.0 | 0.00 | 0.00 | 0.00 | 46 | 1015.1 |
| 20260504001620 | 13 | 0 | 0.0 | 0.0 | 0.00 | 0.00 | 0.00 | 44 | 1015.2 |
| 20260504001044 | 14 | 0 | 0.0 | 0.0 | 0.00 | 0.00 | 0.00 | 44 | 1015.2 |
| 20260504000545 | 14 | 0 | 0.0 | 0.0 | 0.00 | 0.00 | 0.00 | 43 | 1015.3 |
| 20260504000058 | 14 | 0 | 0.0 | 0.0 | 0.00 | 0.00 | 0.00 | 44 | 1015.3 |
| 20260503235542 | 15 | 0 | 0.0 | 0.0 | 0.00 | 0.00 | 0.00 | 40 | 1015.2 |
| 20260503235044 | 15 | 0 | 0.0 | 0.0 | 0.00 | 0.00 | 0.00 | 42 | 1015.3 |
| 20260503234556 | 15 | 0 | 0.0 | 0.0 | 0.00 | 0.00 | 0.00 | 41 | 1015.2 |
| 20260503234044 | 15 | 0 | 0.0 | 0.0 | 0.00 | 0.00 | 0.00 | 39 | 1015.1 |
| 20260503233542 | 15 | 0 | 0.0 | 0.0 | 0.00 | 0.00 | 0.00 | 40 | 1015.2 |
| 20260503233049 | 15 | 0 | 0.0 | 4.8 | 0.00 | 0.00 | 0.00 | 38 | 1015.3 |
| 20260503232544 | 15 | 0 | 0.0 | 4.8 | 0.00 | 0.00 | 0.00 | 39 | 1015.2 |
| 20260503232044 | 15 | 234 | 0.0 | 1.6 | 0.00 | 0.00 | 0.00 | 39 | 1015.6 |
| 20260503231553 | 15 | 0 | 0.0 | 9.7 | 0.00 | 0.00 | 0.00 | 38 | 1015.7 |
| 20260503231042 | 15 | 0 | 0.0 | 9.7 | 0.00 | 0.00 | 0.00 | 40 | 1015.6 |
| 20260503230545 | 15 | 0 | 0.0 | 3.2 | 0.00 | 0.00 | 0.00 | 39 | 1015.7 |
| 20260503230108 | 15 | 0 | 0.0 | 6.4 | 0.00 | 0.00 | 0.00 | 38 | 1015.9 |
| 20260503225543 | 15 | 0 | 0.0 | 6.4 | 0.00 | 0.00 | 0.00 | 38 | 1015.9 |
| 20260503225042 | 15 | 0 | 0.0 | 6.4 | 0.00 | 0.00 | 0.00 | 40 | 1015.8 |
| 20260503224549 | 15 | 0 | 0.0 | 0.0 | 0.00 | 0.00 | 0.00 | 39 | 1015.7 |
| 20260503224044 | 15 | 0 | 0.0 | 1.6 | 0.00 | 0.00 | 0.00 | 40 | 1015.9 |
| 20260503223544 | 15 | 0 | 0.0 | 6.4 | 0.00 | 0.00 | 0.00 | 38 | 1016.0 |
| 20260503223053 | 15 | 0 | 0.0 | 6.4 | 0.00 | 0.00 | 0.00 | 38 | 1016.1 |
| 20260503222541 | 15 | 0 | 0.0 | 6.4 | 0.00 | 0.00 | 0.00 | 41 | 1016.1 |
| 20260503222044 | 16 | 0 | 0.0 | 4.8 | 0.00 | 0.00 | 0.00 | 38 | 1016.0 |
| 20260503221559 | 16 | 0 | 0.0 | 8.0 | 0.00 | 0.00 | 0.00 | 36 | 1016.1 |
| 20260503221042 | 16 | 0 | 0.0 | 8.0 | 0.00 | 0.00 | 0.00 | 37 | 1016.0 |
| 20260503220543 | 16 | 0 | 0.0 | 16.1 | 0.00 | 0.00 | 0.00 | 38 | 1016.0 |
| 20260503220053 | 16 | 0 | 0.0 | 16.1 | 0.00 | 0.00 | 0.00 | 36 | 1016.1 |
| 20260503215545 | 16 | 0 | 0.0 | 4.8 | 0.00 | 0.00 | 0.00 | 35 | 1016.1 |
| 20260503215044 | 16 | 267 | 0.0 | 4.8 | 0.00 | 0.00 | 0.00 | 36 | 1016.1 |
| 20260503214558 | 16 | 0 | 0.0 | 4.8 | 0.00 | 0.00 | 0.00 | 37 | 1016.1 |
| 20260503214044 | 16 | 0 | 0.0 | 4.8 | 0.00 | 0.00 | 0.00 | 34 | 1016.1 |
| 20260503213544 | 16 | 0 | 0.0 | 12.9 | 0.00 | 0.00 | 0.00 | 34 | 1016.2 |
| 20260503213047 | 16 | 226 | 0.0 | 12.9 | 0.00 | 0.00 | 0.00 | 37 | 1016.4 |
| 20260503212542 | 16 | 0 | 0.0 | 3.2 | 0.00 | 0.00 | 0.00 | 35 | 1016.3 |
| 20260503212042 | 16 | 0 | 0.0 | 6.4 | 0.00 | 0.00 | 0.00 | 35 | 1016.3 |
| 20260503211557 | 16 | 213 | 0.0 | 6.4 | 0.00 | 0.00 | 0.00 | 37 | 1016.3 |
| 20260503211042 | 16 | 0 | 0.0 | 4.8 | 0.00 | 0.00 | 0.00 | 38 | 1016.4 |
| 20260503210544 | 16 | 0 | 0.0 | 1.6 | 0.00 | 0.00 | 0.00 | 36 | 1016.4 |
| 20260503210052 | 16 | 0 | 0.0 | 0.0 | 0.00 | 0.00 | 0.00 | 36 | 1016.5 |
| 20260503205542 | 16 | 0 | 0.0 | 0.0 | 0.00 | 0.00 | 0.00 | 35 | 1016.5 |
| 20260503205045 | 16 | 0 | 0.0 | 6.4 | 0.00 | 0.00 | 0.00 | 37 | 1016.5 |
| 20260503204551 | 16 | 0 | 0.0 | 6.4 | 0.00 | 0.00 | 0.00 | 37 | 1016.5 |
| 20260503204044 | 16 | 0 | 0.0 | 6.4 | 0.00 | 0.00 | 0.00 | 34 | 1016.6 |
| 20260503203544 | 16 | 0 | 0.0 | 4.8 | 0.00 | 0.00 | 0.00 | 33 | 1016.6 |
| 20260503203104 | 16 | 0 | 0.0 | 4.8 | 0.00 | 0.00 | 0.00 | 37 | 1016.9 |
| 20260503202544 | 16 | 0 | 0.0 | 17.7 | 0.00 | 0.00 | 0.00 | 37 | 1017.0 |
| 20260503202044 | 16 | 0 | 1.6 | 17.7 | 0.00 | 0.00 | 0.00 | 38 | 1017.0 |
| 20260503201551 | 17 | 0 | 0.0 | 6.4 | 0.00 | 0.00 | 0.00 | 36 | 1017.1 |
| 20260503201044 | 16 | 0 | 0.0 | 4.8 | 0.00 | 0.00 | 0.00 | 37 | 1017.3 |
| 20260503200546 | 17 | 0 | 0.0 | 4.8 | 0.00 | 0.00 | 0.00 | 35 | 1017.2 |
| 20260503200047 | 16 | 0 | 0.0 | 3.2 | 0.00 | 0.00 | 0.00 | 37 | 1017.3 |
| 20260503195543 | 16 | 0 | 0.0 | 0.0 | 0.00 | 0.00 | 0.00 | 36 | 1017.3 |
| 20260503195043 | 16 | 0 | 0.0 | 14.5 | 0.00 | 0.00 | 0.00 | 43 | 1017.4 |
| 20260503194553 | 16 | 0 | 0.0 | 14.5 | 0.00 | 0.00 | 0.00 | 37 | 1017.6 |
| 20260503194043 | 16 | 0 | 0.0 | 4.8 | 0.00 | 0.00 | 0.00 | 38 | 1017.7 |
| 20260503193545 | 15 | 0 | 0.0 | 6.4 | 0.00 | 0.00 | 0.00 | 38 | 1017.8 |
| 20260503193049 | 15 | 0 | 0.0 | 6.4 | 0.00 | 0.00 | 0.00 | 35 | 1018.0 |
| 20260503192544 | 16 | 0 | 0.0 | 3.2 | 0.00 | 0.00 | 0.00 | 35 | 1018.2 |
| 20260503192044 | 16 | 0 | 0.0 | 16.1 | 0.00 | 0.00 | 0.00 | 36 | 1018.2 |
| 20260503191552 | 17 | 0 | 0.0 | 16.1 | 0.00 | 0.00 | 0.00 | 36 | 1018.2 |
| 20260503191042 | 16 | 0 | 0.0 | 8.0 | 0.00 | 0.00 | 0.00 | 38 | 1018.3 |
| 20260503190542 | 16 | 0 | 0.0 | 8.0 | 0.00 | 0.00 | 0.00 | 42 | 1018.4 |